sensor_id;sensor_type;location;lat;lon;timestamp;P1;durP1;ratioP1;P2;durP2;ratioP2
31282;SDS011;17915;52.540;13.604;2023-10-08T00:02:08;13.07;;;3.67;;
31282;SDS011;17915;52.540;13.604;2023-10-08T00:07:02;9.18;;;3.08;;
31282;SDS011;17915;52.540;13.604;2023-10-08T00:09:32;8.25;;;3.00;;
31282;SDS011;17915;52.540;13.604;2023-10-08T00:12:00;8.45;;;2.90;;
31282;SDS011;17915;52.540;13.604;2023-10-08T00:14:27;12.07;;;4.25;;
31282;SDS011;17915;52.540;13.604;2023-10-08T00:16:53;8.07;;;3.30;;
31282;SDS011;17915;52.540;13.604;2023-10-08T00:19:18;5.87;;;3.70;;
31282;SDS011;17915;52.540;13.604;2023-10-08T00:21:44;10.83;;;4.30;;
31282;SDS011;17915;52.540;13.604;2023-10-08T00:24:10;10.07;;;2.78;;
31282;SDS011;17915;52.540;13.604;2023-10-08T00:31:32;6.70;;;3.15;;
31282;SDS011;17915;52.540;13.604;2023-10-08T00:34:05;12.23;;;3.75;;
31282;SDS011;17915;52.540;13.604;2023-10-08T00:36:30;6.00;;;3.23;;
31282;SDS011;17915;52.540;13.604;2023-10-08T00:38:56;11.23;;;3.60;;
31282;SDS011;17915;52.540;13.604;2023-10-08T00:41:25;15.75;;;3.15;;
31282;SDS011;17915;52.540;13.604;2023-10-08T00:43:56;7.60;;;3.85;;
31282;SDS011;17915;52.540;13.604;2023-10-08T00:46:24;7.53;;;2.63;;
31282;SDS011;17915;52.540;13.604;2023-10-08T00:48:54;6.63;;;3.10;;
31282;SDS011;17915;52.540;13.604;2023-10-08T00:51:20;7.17;;;2.77;;
31282;SDS011;17915;52.540;13.604;2023-10-08T00:53:51;7.97;;;3.47;;
31282;SDS011;17915;52.540;13.604;2023-10-08T00:56:22;12.90;;;3.58;;
31282;SDS011;17915;52.540;13.604;2023-10-08T00:58:50;14.60;;;4.00;;
31282;SDS011;17915;52.540;13.604;2023-10-08T01:01:18;9.27;;;3.67;;
31282;SDS011;17915;52.540;13.604;2023-10-08T01:03:46;13.73;;;4.03;;
31282;SDS011;17915;52.540;13.604;2023-10-08T01:06:14;7.57;;;3.40;;
31282;SDS011;17915;52.540;13.604;2023-10-08T01:08:43;5.50;;;3.30;;
31282;SDS011;17915;52.540;13.604;2023-10-08T01:11:23;17.23;;;5.50;;
31282;SDS011;17915;52.540;13.604;2023-10-08T01:14:27;10.20;;;3.95;;
31282;SDS011;17915;52.540;13.604;2023-10-08T01:16:57;18.13;;;4.38;;
31282;SDS011;17915;52.540;13.604;2023-10-08T01:19:23;14.90;;;3.87;;
31282;SDS011;17915;52.540;13.604;2023-10-08T01:21:50;8.05;;;3.55;;
31282;SDS011;17915;52.540;13.604;2023-10-08T01:24:16;21.63;;;5.07;;
31282;SDS011;17915;52.540;13.604;2023-10-08T01:26:42;9.02;;;2.83;;
31282;SDS011;17915;52.540;13.604;2023-10-08T01:29:10;11.02;;;2.85;;
31282;SDS011;17915;52.540;13.604;2023-10-08T01:31:44;10.50;;;3.90;;
31282;SDS011;17915;52.540;13.604;2023-10-08T01:34:10;20.33;;;3.58;;
31282;SDS011;17915;52.540;13.604;2023-10-08T01:36:40;10.43;;;3.45;;
31282;SDS011;17915;52.540;13.604;2023-10-08T01:39:08;10.23;;;3.10;;
31282;SDS011;17915;52.540;13.604;2023-10-08T01:41:36;5.78;;;3.53;;
31282;SDS011;17915;52.540;13.604;2023-10-08T01:44:05;10.25;;;3.20;;
31282;SDS011;17915;52.540;13.604;2023-10-08T01:46:33;6.97;;;3.08;;
31282;SDS011;17915;52.540;13.604;2023-10-08T01:48:59;18.02;;;3.53;;
31282;SDS011;17915;52.540;13.604;2023-10-08T01:51:29;15.80;;;3.55;;
31282;SDS011;17915;52.540;13.604;2023-10-08T01:54:02;19.20;;;4.05;;
31282;SDS011;17915;52.540;13.604;2023-10-08T01:56:29;10.25;;;3.17;;
31282;SDS011;17915;52.540;13.604;2023-10-08T01:58:55;7.87;;;2.57;;
31282;SDS011;17915;52.540;13.604;2023-10-08T02:01:20;8.80;;;2.77;;
31282;SDS011;17915;52.540;13.604;2023-10-08T02:03:46;8.47;;;3.33;;
31282;SDS011;17915;52.540;13.604;2023-10-08T02:06:11;7.20;;;3.00;;
31282;SDS011;17915;52.540;13.604;2023-10-08T02:08:37;11.10;;;2.75;;
31282;SDS011;17915;52.540;13.604;2023-10-08T02:11:03;9.47;;;3.73;;
31282;SDS011;17915;52.540;13.604;2023-10-08T02:13:28;15.77;;;3.13;;
31282;SDS011;17915;52.540;13.604;2023-10-08T02:15:54;10.40;;;3.43;;
31282;SDS011;17915;52.540;13.604;2023-10-08T02:18:19;5.23;;;3.20;;
31282;SDS011;17915;52.540;13.604;2023-10-08T02:20:46;3.35;;;2.45;;
31282;SDS011;17915;52.540;13.604;2023-10-08T02:23:13;10.73;;;3.30;;
31282;SDS011;17915;52.540;13.604;2023-10-08T02:25:38;7.10;;;3.37;;
31282;SDS011;17915;52.540;13.604;2023-10-08T02:28:07;11.63;;;4.07;;
31282;SDS011;17915;52.540;13.604;2023-10-08T02:30:38;11.75;;;3.38;;
31282;SDS011;17915;52.540;13.604;2023-10-08T02:33:05;8.45;;;3.33;;
31282;SDS011;17915;52.540;13.604;2023-10-08T02:35:39;7.57;;;4.22;;
31282;SDS011;17915;52.540;13.604;2023-10-08T02:38:07;7.32;;;3.42;;
31282;SDS011;17915;52.540;13.604;2023-10-08T02:40:34;12.82;;;3.58;;
31282;SDS011;17915;52.540;13.604;2023-10-08T02:43:02;19.90;;;4.60;;
31282;SDS011;17915;52.540;13.604;2023-10-08T02:45:31;9.48;;;3.72;;
31282;SDS011;17915;52.540;13.604;2023-10-08T02:47:56;9.63;;;3.53;;
31282;SDS011;17915;52.540;13.604;2023-10-08T02:50:22;12.90;;;4.17;;
31282;SDS011;17915;52.540;13.604;2023-10-08T02:52:48;13.90;;;3.67;;
31282;SDS011;17915;52.540;13.604;2023-10-08T02:55:15;10.48;;;3.40;;
31282;SDS011;17915;52.540;13.604;2023-10-08T02:57:53;13.23;;;4.07;;
31282;SDS011;17915;52.540;13.604;2023-10-08T03:00:18;9.07;;;3.50;;
31282;SDS011;17915;52.540;13.604;2023-10-08T03:05:11;18.17;;;4.43;;
31282;SDS011;17915;52.540;13.604;2023-10-08T03:07:38;13.30;;;3.85;;
31282;SDS011;17915;52.540;13.604;2023-10-08T03:10:05;18.90;;;3.80;;
31282;SDS011;17915;52.540;13.604;2023-10-08T03:12:31;7.35;;;4.45;;
31282;SDS011;17915;52.540;13.604;2023-10-08T03:15:03;6.90;;;3.60;;
31282;SDS011;17915;52.540;13.604;2023-10-08T03:17:38;13.75;;;3.08;;
31282;SDS011;17915;52.540;13.604;2023-10-08T03:20:04;12.20;;;3.90;;
31282;SDS011;17915;52.540;13.604;2023-10-08T03:22:50;19.05;;;3.97;;
31282;SDS011;17915;52.540;13.604;2023-10-08T03:25:15;12.93;;;3.83;;
31282;SDS011;17915;52.540;13.604;2023-10-08T03:27:42;8.80;;;3.55;;
31282;SDS011;17915;52.540;13.604;2023-10-08T03:30:08;12.03;;;4.63;;
31282;SDS011;17915;52.540;13.604;2023-10-08T03:32:39;15.00;;;4.63;;
31282;SDS011;17915;52.540;13.604;2023-10-08T03:35:09;12.45;;;3.92;;
31282;SDS011;17915;52.540;13.604;2023-10-08T03:37:37;16.20;;;3.90;;
31282;SDS011;17915;52.540;13.604;2023-10-08T03:40:15;15.52;;;4.88;;
31282;SDS011;17915;52.540;13.604;2023-10-08T03:43:07;6.60;;;4.07;;
31282;SDS011;17915;52.540;13.604;2023-10-08T03:45:48;11.02;;;3.70;;
31282;SDS011;17915;52.540;13.604;2023-10-08T03:48:18;23.20;;;5.90;;
31282;SDS011;17915;52.540;13.604;2023-10-08T03:50:47;9.50;;;3.78;;
31282;SDS011;17915;52.540;13.604;2023-10-08T03:53:21;12.15;;;4.05;;
31282;SDS011;17915;52.540;13.604;2023-10-08T03:55:47;5.85;;;4.10;;
31282;SDS011;17915;52.540;13.604;2023-10-08T03:58:17;12.00;;;4.50;;
31282;SDS011;17915;52.540;13.604;2023-10-08T04:00:52;9.18;;;3.67;;
31282;SDS011;17915;52.540;13.604;2023-10-08T04:03:33;12.23;;;4.13;;
31282;SDS011;17915;52.540;13.604;2023-10-08T04:06:19;10.52;;;3.85;;
31282;SDS011;17915;52.540;13.604;2023-10-08T04:08:47;9.43;;;3.33;;
31282;SDS011;17915;52.540;13.604;2023-10-08T04:11:42;11.20;;;4.15;;
31282;SDS011;17915;52.540;13.604;2023-10-08T04:14:13;23.27;;;3.50;;
31282;SDS011;17915;52.540;13.604;2023-10-08T04:16:41;4.75;;;3.75;;
31282;SDS011;17915;52.540;13.604;2023-10-08T04:19:07;13.57;;;3.70;;
31282;SDS011;17915;52.540;13.604;2023-10-08T04:21:33;19.07;;;5.03;;
31282;SDS011;17915;52.540;13.604;2023-10-08T04:24:01;15.73;;;4.50;;
31282;SDS011;17915;52.540;13.604;2023-10-08T04:26:33;10.38;;;3.83;;
31282;SDS011;17915;52.540;13.604;2023-10-08T04:29:05;8.32;;;4.47;;
31282;SDS011;17915;52.540;13.604;2023-10-08T04:31:35;9.20;;;3.33;;
31282;SDS011;17915;52.540;13.604;2023-10-08T04:34:23;12.60;;;3.42;;
31282;SDS011;17915;52.540;13.604;2023-10-08T04:36:49;3.60;;;2.40;;
31282;SDS011;17915;52.540;13.604;2023-10-08T04:39:21;12.50;;;3.47;;
31282;SDS011;17915;52.540;13.604;2023-10-08T04:41:48;4.78;;;2.95;;
31282;SDS011;17915;52.540;13.604;2023-10-08T04:44:19;12.60;;;4.57;;
31282;SDS011;17915;52.540;13.604;2023-10-08T04:46:46;6.50;;;3.50;;
31282;SDS011;17915;52.540;13.604;2023-10-08T04:49:15;11.02;;;2.83;;
31282;SDS011;17915;52.540;13.604;2023-10-08T04:52:06;9.80;;;4.00;;
31282;SDS011;17915;52.540;13.604;2023-10-08T04:54:43;12.25;;;3.97;;
31282;SDS011;17915;52.540;13.604;2023-10-08T04:57:16;12.35;;;3.90;;
31282;SDS011;17915;52.540;13.604;2023-10-08T04:59:42;10.55;;;3.50;;
31282;SDS011;17915;52.540;13.604;2023-10-08T05:02:08;12.52;;;4.32;;
31282;SDS011;17915;52.540;13.604;2023-10-08T05:04:49;11.90;;;3.70;;
31282;SDS011;17915;52.540;13.604;2023-10-08T05:07:34;7.78;;;3.70;;
31282;SDS011;17915;52.540;13.604;2023-10-08T05:10:25;7.90;;;3.78;;
31282;SDS011;17915;52.540;13.604;2023-10-08T05:12:54;10.53;;;4.20;;
31282;SDS011;17915;52.540;13.604;2023-10-08T05:15:42;12.40;;;3.70;;
31282;SDS011;17915;52.540;13.604;2023-10-08T05:18:27;18.92;;;4.43;;
31282;SDS011;17915;52.540;13.604;2023-10-08T05:21:13;4.32;;;3.40;;
31282;SDS011;17915;52.540;13.604;2023-10-08T05:23:51;7.38;;;4.88;;
31282;SDS011;17915;52.540;13.604;2023-10-08T05:26:34;24.15;;;4.00;;
31282;SDS011;17915;52.540;13.604;2023-10-08T05:29:14;14.20;;;3.67;;
31282;SDS011;17915;52.540;13.604;2023-10-08T05:32:14;8.85;;;3.80;;
31282;SDS011;17915;52.540;13.604;2023-10-08T05:35:03;4.57;;;3.55;;
31282;SDS011;17915;52.540;13.604;2023-10-08T05:37:47;6.80;;;4.05;;
31282;SDS011;17915;52.540;13.604;2023-10-08T05:40:17;10.00;;;3.90;;
31282;SDS011;17915;52.540;13.604;2023-10-08T05:43:05;7.15;;;3.58;;
31282;SDS011;17915;52.540;13.604;2023-10-08T05:45:47;22.77;;;4.78;;
31282;SDS011;17915;52.540;13.604;2023-10-08T05:48:33;14.55;;;4.47;;
31282;SDS011;17915;52.540;13.604;2023-10-08T05:51:06;6.93;;;3.83;;
31282;SDS011;17915;52.540;13.604;2023-10-08T05:53:48;7.72;;;4.18;;
31282;SDS011;17915;52.540;13.604;2023-10-08T05:56:14;6.88;;;3.28;;
31282;SDS011;17915;52.540;13.604;2023-10-08T05:58:53;11.52;;;4.10;;
31282;SDS011;17915;52.540;13.604;2023-10-08T06:01:40;15.82;;;4.13;;
31282;SDS011;17915;52.540;13.604;2023-10-08T06:07:07;3.25;;;2.65;;
31282;SDS011;17915;52.540;13.604;2023-10-08T06:09:37;22.08;;;3.95;;
31282;SDS011;17915;52.540;13.604;2023-10-08T06:12:05;8.32;;;4.13;;
31282;SDS011;17915;52.540;13.604;2023-10-08T06:14:36;9.43;;;4.22;;
31282;SDS011;17915;52.540;13.604;2023-10-08T06:17:18;10.13;;;3.75;;
31282;SDS011;17915;52.540;13.604;2023-10-08T06:20:09;17.88;;;3.75;;
31282;SDS011;17915;52.540;13.604;2023-10-08T06:22:41;10.88;;;3.90;;
31282;SDS011;17915;52.540;13.604;2023-10-08T06:25:08;4.72;;;3.20;;
31282;SDS011;17915;52.540;13.604;2023-10-08T06:27:43;8.93;;;3.42;;
31282;SDS011;17915;52.540;13.604;2023-10-08T06:30:12;8.20;;;3.67;;
31282;SDS011;17915;52.540;13.604;2023-10-08T06:32:42;13.60;;;4.15;;
31282;SDS011;17915;52.540;13.604;2023-10-08T06:35:09;14.38;;;4.10;;
31282;SDS011;17915;52.540;13.604;2023-10-08T06:37:42;9.50;;;2.65;;
31282;SDS011;17915;52.540;13.604;2023-10-08T06:40:10;4.70;;;2.65;;
31282;SDS011;17915;52.540;13.604;2023-10-08T06:42:56;3.83;;;2.43;;
31282;SDS011;17915;52.540;13.604;2023-10-08T06:45:22;5.70;;;3.43;;
31282;SDS011;17915;52.540;13.604;2023-10-08T06:47:48;12.05;;;3.33;;
31282;SDS011;17915;52.540;13.604;2023-10-08T06:50:15;6.50;;;2.60;;
31282;SDS011;17915;52.540;13.604;2023-10-08T06:52:41;3.97;;;2.20;;
31282;SDS011;17915;52.540;13.604;2023-10-08T06:55:08;2.60;;;2.13;;
31282;SDS011;17915;52.540;13.604;2023-10-08T06:57:36;2.08;;;1.98;;
31282;SDS011;17915;52.540;13.604;2023-10-08T07:00:03;7.20;;;2.63;;
31282;SDS011;17915;52.540;13.604;2023-10-08T07:02:37;2.33;;;2.10;;
31282;SDS011;17915;52.540;13.604;2023-10-08T07:05:04;9.65;;;2.72;;
31282;SDS011;17915;52.540;13.604;2023-10-08T07:07:34;4.07;;;3.00;;
31282;SDS011;17915;52.540;13.604;2023-10-08T07:10:05;3.83;;;2.20;;
31282;SDS011;17915;52.540;13.604;2023-10-08T07:12:35;5.15;;;2.35;;
31282;SDS011;17915;52.540;13.604;2023-10-08T07:15:01;12.83;;;3.70;;
31282;SDS011;17915;52.540;13.604;2023-10-08T07:17:30;4.93;;;2.70;;
31282;SDS011;17915;52.540;13.604;2023-10-08T07:20:05;2.13;;;1.93;;
31282;SDS011;17915;52.540;13.604;2023-10-08T07:22:38;4.13;;;1.83;;
31282;SDS011;17915;52.540;13.604;2023-10-08T07:25:04;3.93;;;1.73;;
31282;SDS011;17915;52.540;13.604;2023-10-08T07:27:34;6.80;;;2.45;;
31282;SDS011;17915;52.540;13.604;2023-10-08T07:30:03;4.55;;;1.90;;
31282;SDS011;17915;52.540;13.604;2023-10-08T07:32:35;2.45;;;1.80;;
31282;SDS011;17915;52.540;13.604;2023-10-08T07:35:03;3.88;;;2.20;;
31282;SDS011;17915;52.540;13.604;2023-10-08T07:37:49;3.75;;;3.30;;
31282;SDS011;17915;52.540;13.604;2023-10-08T07:40:16;1.60;;;1.50;;
31282;SDS011;17915;52.540;13.604;2023-10-08T07:42:42;2.43;;;1.60;;
31282;SDS011;17915;52.540;13.604;2023-10-08T07:45:09;4.28;;;2.22;;
31282;SDS011;17915;52.540;13.604;2023-10-08T07:47:34;3.80;;;1.92;;
31282;SDS011;17915;52.540;13.604;2023-10-08T07:50:00;1.77;;;1.67;;
31282;SDS011;17915;52.540;13.604;2023-10-08T07:52:26;1.70;;;1.60;;
31282;SDS011;17915;52.540;13.604;2023-10-08T07:54:51;2.57;;;2.30;;
31282;SDS011;17915;52.540;13.604;2023-10-08T07:57:18;2.67;;;2.03;;
31282;SDS011;17915;52.540;13.604;2023-10-08T08:00:01;1.92;;;1.63;;
31282;SDS011;17915;52.540;13.604;2023-10-08T08:02:43;9.32;;;2.00;;
31282;SDS011;17915;52.540;13.604;2023-10-08T08:05:09;2.95;;;1.55;;
31282;SDS011;17915;52.540;13.604;2023-10-08T08:07:35;7.47;;;1.93;;
31282;SDS011;17915;52.540;13.604;2023-10-08T08:10:02;2.35;;;2.15;;
31282;SDS011;17915;52.540;13.604;2023-10-08T08:12:32;2.50;;;1.23;;
31282;SDS011;17915;52.540;13.604;2023-10-08T08:14:58;2.00;;;1.90;;
31282;SDS011;17915;52.540;13.604;2023-10-08T08:17:24;2.28;;;1.73;;
31282;SDS011;17915;52.540;13.604;2023-10-08T08:19:50;3.93;;;2.20;;
31282;SDS011;17915;52.540;13.604;2023-10-08T08:22:17;3.58;;;1.80;;
31282;SDS011;17915;52.540;13.604;2023-10-08T08:24:49;2.10;;;1.90;;
31282;SDS011;17915;52.540;13.604;2023-10-08T08:27:19;2.65;;;1.95;;
31282;SDS011;17915;52.540;13.604;2023-10-08T08:29:57;2.15;;;1.77;;
31282;SDS011;17915;52.540;13.604;2023-10-08T08:32:38;11.73;;;2.25;;
31282;SDS011;17915;52.540;13.604;2023-10-08T08:35:10;3.28;;;2.97;;
31282;SDS011;17915;52.540;13.604;2023-10-08T08:37:36;2.78;;;2.45;;
31282;SDS011;17915;52.540;13.604;2023-10-08T08:40:04;3.13;;;1.50;;
31282;SDS011;17915;52.540;13.604;2023-10-08T08:42:50;2.70;;;1.58;;
31282;SDS011;17915;52.540;13.604;2023-10-08T08:45:21;3.92;;;1.13;;
31282;SDS011;17915;52.540;13.604;2023-10-08T08:47:47;4.78;;;1.48;;
31282;SDS011;17915;52.540;13.604;2023-10-08T08:50:13;1.27;;;1.27;;
31282;SDS011;17915;52.540;13.604;2023-10-08T08:52:38;2.47;;;1.83;;
31282;SDS011;17915;52.540;13.604;2023-10-08T08:55:05;1.92;;;1.83;;
31282;SDS011;17915;52.540;13.604;2023-10-08T08:57:38;4.05;;;2.78;;
31282;SDS011;17915;52.540;13.604;2023-10-08T09:00:04;1.10;;;1.10;;
31282;SDS011;17915;52.540;13.604;2023-10-08T09:02:35;4.65;;;1.60;;
31282;SDS011;17915;52.540;13.604;2023-10-08T09:05:02;1.00;;;1.00;;
31282;SDS011;17915;52.540;13.604;2023-10-08T09:07:51;2.63;;;1.38;;
31282;SDS011;17915;52.540;13.604;2023-10-08T09:10:23;1.20;;;1.20;;
31282;SDS011;17915;52.540;13.604;2023-10-08T09:12:54;1.77;;;1.67;;
31282;SDS011;17915;52.540;13.604;2023-10-08T09:15:24;1.50;;;1.40;;
31282;SDS011;17915;52.540;13.604;2023-10-08T09:17:52;1.25;;;1.20;;
31282;SDS011;17915;52.540;13.604;2023-10-08T09:20:19;0.98;;;0.98;;
31282;SDS011;17915;52.540;13.604;2023-10-08T09:22:45;1.23;;;1.23;;
31282;SDS011;17915;52.540;13.604;2023-10-08T09:25:15;3.97;;;1.30;;
31282;SDS011;17915;52.540;13.604;2023-10-08T09:27:50;1.83;;;1.73;;
31282;SDS011;17915;52.540;13.604;2023-10-08T09:30:18;1.27;;;1.08;;
31282;SDS011;17915;52.540;13.604;2023-10-08T09:32:45;2.08;;;1.55;;
31282;SDS011;17915;52.540;13.604;2023-10-08T09:35:10;4.90;;;1.00;;
31282;SDS011;17915;52.540;13.604;2023-10-08T09:37:38;0.70;;;0.70;;
31282;SDS011;17915;52.540;13.604;2023-10-08T09:40:04;2.20;;;1.58;;
31282;SDS011;17915;52.540;13.604;2023-10-08T09:42:34;1.05;;;1.00;;
31282;SDS011;17915;52.540;13.604;2023-10-08T09:45:01;1.20;;;1.20;;
31282;SDS011;17915;52.540;13.604;2023-10-08T09:47:31;1.10;;;0.93;;
31282;SDS011;17915;52.540;13.604;2023-10-08T09:50:01;1.38;;;1.10;;
31282;SDS011;17915;52.540;13.604;2023-10-08T09:52:34;3.28;;;1.20;;
31282;SDS011;17915;52.540;13.604;2023-10-08T09:55:07;2.05;;;0.98;;
31282;SDS011;17915;52.540;13.604;2023-10-08T09:57:35;1.02;;;0.93;;
31282;SDS011;17915;52.540;13.604;2023-10-08T10:00:01;2.10;;;1.48;;
31282;SDS011;17915;52.540;13.604;2023-10-08T10:02:28;0.95;;;0.88;;
31282;SDS011;17915;52.540;13.604;2023-10-08T10:04:56;2.15;;;1.30;;
31282;SDS011;17915;52.540;13.604;2023-10-08T10:07:21;0.80;;;0.80;;
31282;SDS011;17915;52.540;13.604;2023-10-08T10:09:50;1.38;;;1.23;;
31282;SDS011;17915;52.540;13.604;2023-10-08T10:12:19;0.90;;;0.90;;
31282;SDS011;17915;52.540;13.604;2023-10-08T10:14:51;3.53;;;1.15;;
31282;SDS011;17915;52.540;13.604;2023-10-08T10:17:20;1.65;;;1.48;;
31282;SDS011;17915;52.540;13.604;2023-10-08T10:19:57;0.82;;;0.82;;
31282;SDS011;17915;52.540;13.604;2023-10-08T10:22:30;1.45;;;1.35;;
31282;SDS011;17915;52.540;13.604;2023-10-08T10:24:58;5.40;;;1.23;;
31282;SDS011;17915;52.540;13.604;2023-10-08T10:27:25;2.92;;;2.72;;
31282;SDS011;17915;52.540;13.604;2023-10-08T10:29:51;1.00;;;1.00;;
31282;SDS011;17915;52.540;13.604;2023-10-08T10:34:54;1.15;;;0.80;;
31282;SDS011;17915;52.540;13.604;2023-10-08T10:37:19;0.90;;;0.90;;
31282;SDS011;17915;52.540;13.604;2023-10-08T10:39:51;1.40;;;1.30;;
31282;SDS011;17915;52.540;13.604;2023-10-08T10:42:19;1.33;;;1.02;;
31282;SDS011;17915;52.540;13.604;2023-10-08T10:44:46;5.87;;;1.17;;
31282;SDS011;17915;52.540;13.604;2023-10-08T10:47:14;1.10;;;1.10;;
31282;SDS011;17915;52.540;13.604;2023-10-08T10:49:40;1.20;;;1.10;;
31282;SDS011;17915;52.540;13.604;2023-10-08T10:52:25;1.02;;;1.02;;
31282;SDS011;17915;52.540;13.604;2023-10-08T10:55:02;1.60;;;1.27;;
31282;SDS011;17915;52.540;13.604;2023-10-08T10:57:41;0.90;;;0.90;;
31282;SDS011;17915;52.540;13.604;2023-10-08T11:00:08;0.90;;;0.90;;
31282;SDS011;17915;52.540;13.604;2023-10-08T11:02:52;1.23;;;1.00;;
31282;SDS011;17915;52.540;13.604;2023-10-08T11:05:22;2.13;;;1.15;;
31282;SDS011;17915;52.540;13.604;2023-10-08T11:07:53;2.25;;;1.40;;
31282;SDS011;17915;52.540;13.604;2023-10-08T11:10:23;1.73;;;1.10;;
31282;SDS011;17915;52.540;13.604;2023-10-08T11:12:49;1.42;;;1.33;;
31282;SDS011;17915;52.540;13.604;2023-10-08T11:15:18;1.05;;;1.05;;
31282;SDS011;17915;52.540;13.604;2023-10-08T11:17:44;1.47;;;1.30;;
31282;SDS011;17915;52.540;13.604;2023-10-08T11:22:53;1.95;;;1.75;;
31282;SDS011;17915;52.540;13.604;2023-10-08T11:25:41;0.88;;;0.88;;
31282;SDS011;17915;52.540;13.604;2023-10-08T11:28:19;3.53;;;3.03;;
31282;SDS011;17915;52.540;13.604;2023-10-08T11:30:45;2.07;;;1.33;;
31282;SDS011;17915;52.540;13.604;2023-10-08T11:33:12;2.47;;;1.38;;
31282;SDS011;17915;52.540;13.604;2023-10-08T11:35:57;2.05;;;1.40;;
31282;SDS011;17915;52.540;13.604;2023-10-08T11:38:26;0.88;;;0.88;;
31282;SDS011;17915;52.540;13.604;2023-10-08T11:40:52;1.75;;;1.65;;
31282;SDS011;17915;52.540;13.604;2023-10-08T11:43:24;3.75;;;2.97;;
31282;SDS011;17915;52.540;13.604;2023-10-08T11:45:50;3.70;;;1.20;;
31282;SDS011;17915;52.540;13.604;2023-10-08T11:48:16;5.25;;;3.38;;
31282;SDS011;17915;52.540;13.604;2023-10-08T11:50:50;3.33;;;1.17;;
31282;SDS011;17915;52.540;13.604;2023-10-08T11:53:16;1.50;;;1.13;;
31282;SDS011;17915;52.540;13.604;2023-10-08T11:55:44;1.25;;;1.20;;
31282;SDS011;17915;52.540;13.604;2023-10-08T11:58:10;1.42;;;1.33;;
31282;SDS011;17915;52.540;13.604;2023-10-08T12:00:38;2.60;;;2.37;;
31282;SDS011;17915;52.540;13.604;2023-10-08T12:03:17;2.50;;;1.30;;
31282;SDS011;17915;52.540;13.604;2023-10-08T12:05:43;1.00;;;1.00;;
31282;SDS011;17915;52.540;13.604;2023-10-08T12:08:16;2.65;;;1.40;;
31282;SDS011;17915;52.540;13.604;2023-10-08T12:10:45;0.80;;;0.80;;
31282;SDS011;17915;52.540;13.604;2023-10-08T12:13:11;3.20;;;1.27;;
31282;SDS011;17915;52.540;13.604;2023-10-08T12:15:37;1.65;;;1.30;;
31282;SDS011;17915;52.540;13.604;2023-10-08T12:18:06;0.98;;;0.98;;
31282;SDS011;17915;52.540;13.604;2023-10-08T12:20:41;1.55;;;1.30;;
31282;SDS011;17915;52.540;13.604;2023-10-08T12:23:10;1.55;;;1.13;;
31282;SDS011;17915;52.540;13.604;2023-10-08T12:25:36;4.77;;;1.40;;
31282;SDS011;17915;52.540;13.604;2023-10-08T12:28:02;1.98;;;1.63;;
31282;SDS011;17915;52.540;13.604;2023-10-08T12:30:29;2.88;;;1.58;;
31282;SDS011;17915;52.540;13.604;2023-10-08T12:35:31;3.15;;;0.93;;
31282;SDS011;17915;52.540;13.604;2023-10-08T12:37:57;2.17;;;1.17;;
31282;SDS011;17915;52.540;13.604;2023-10-08T12:40:22;3.23;;;1.53;;
31282;SDS011;17915;52.540;13.604;2023-10-08T12:42:51;1.33;;;1.20;;
31282;SDS011;17915;52.540;13.604;2023-10-08T12:45:17;1.30;;;1.10;;
31282;SDS011;17915;52.540;13.604;2023-10-08T12:47:51;5.15;;;1.30;;
31282;SDS011;17915;52.540;13.604;2023-10-08T12:50:18;2.58;;;1.02;;
31282;SDS011;17915;52.540;13.604;2023-10-08T12:53:08;1.30;;;1.30;;
31282;SDS011;17915;52.540;13.604;2023-10-08T12:55:36;2.10;;;1.42;;
31282;SDS011;17915;52.540;13.604;2023-10-08T12:58:05;4.93;;;1.67;;
31282;SDS011;17915;52.540;13.604;2023-10-08T13:00:36;1.00;;;0.95;;
31282;SDS011;17915;52.540;13.604;2023-10-08T13:03:14;1.63;;;1.50;;
31282;SDS011;17915;52.540;13.604;2023-10-08T13:05:48;1.58;;;1.38;;
31282;SDS011;17915;52.540;13.604;2023-10-08T13:08:17;1.52;;;1.40;;
31282;SDS011;17915;52.540;13.604;2023-10-08T13:10:46;1.40;;;1.30;;
31282;SDS011;17915;52.540;13.604;2023-10-08T13:15:38;1.63;;;1.45;;
31282;SDS011;17915;52.540;13.604;2023-10-08T13:18:06;1.17;;;1.17;;
31282;SDS011;17915;52.540;13.604;2023-10-08T13:20:32;1.80;;;1.70;;
31282;SDS011;17915;52.540;13.604;2023-10-08T13:23:00;1.33;;;1.20;;
31282;SDS011;17915;52.540;13.604;2023-10-08T13:27:51;1.17;;;1.10;;
31282;SDS011;17915;52.540;13.604;2023-10-08T13:30:17;6.10;;;1.37;;
31282;SDS011;17915;52.540;13.604;2023-10-08T13:32:43;1.53;;;1.43;;
31282;SDS011;17915;52.540;13.604;2023-10-08T13:35:08;2.40;;;1.27;;
31282;SDS011;17915;52.540;13.604;2023-10-08T13:37:36;1.20;;;1.05;;
31282;SDS011;17915;52.540;13.604;2023-10-08T13:40:02;2.95;;;1.17;;
31282;SDS011;17915;52.540;13.604;2023-10-08T13:42:28;1.98;;;1.85;;
31282;SDS011;17915;52.540;13.604;2023-10-08T13:44:54;1.33;;;1.02;;
31282;SDS011;17915;52.540;13.604;2023-10-08T13:47:33;1.20;;;1.20;;
31282;SDS011;17915;52.540;13.604;2023-10-08T13:49:58;1.80;;;1.38;;
31282;SDS011;17915;52.540;13.604;2023-10-08T13:52:24;1.70;;;1.60;;
31282;SDS011;17915;52.540;13.604;2023-10-08T13:54:54;2.35;;;1.52;;
31282;SDS011;17915;52.540;13.604;2023-10-08T13:57:20;1.50;;;1.40;;
31282;SDS011;17915;52.540;13.604;2023-10-08T13:59:46;2.30;;;1.50;;
31282;SDS011;17915;52.540;13.604;2023-10-08T14:02:13;1.60;;;1.50;;
31282;SDS011;17915;52.540;13.604;2023-10-08T14:04:40;4.55;;;1.60;;
31282;SDS011;17915;52.540;13.604;2023-10-08T14:07:08;4.85;;;1.35;;
31282;SDS011;17915;52.540;13.604;2023-10-08T14:09:43;1.40;;;1.30;;
31282;SDS011;17915;52.540;13.604;2023-10-08T14:12:10;2.83;;;1.70;;
31282;SDS011;17915;52.540;13.604;2023-10-08T14:14:36;2.25;;;1.60;;
31282;SDS011;17915;52.540;13.604;2023-10-08T14:17:06;1.58;;;1.48;;
31282;SDS011;17915;52.540;13.604;2023-10-08T14:19:32;1.40;;;1.40;;
31282;SDS011;17915;52.540;13.604;2023-10-08T14:22:24;1.80;;;1.70;;
31282;SDS011;17915;52.540;13.604;2023-10-08T14:24:50;1.93;;;1.83;;
31282;SDS011;17915;52.540;13.604;2023-10-08T14:27:27;1.77;;;1.38;;
31282;SDS011;17915;52.540;13.604;2023-10-08T14:30:03;4.22;;;1.08;;
31282;SDS011;17915;52.540;13.604;2023-10-08T14:32:30;1.80;;;1.42;;
31282;SDS011;17915;52.540;13.604;2023-10-08T14:34:58;1.23;;;1.23;;
31282;SDS011;17915;52.540;13.604;2023-10-08T14:37:23;1.70;;;1.60;;
31282;SDS011;17915;52.540;13.604;2023-10-08T14:40:07;1.90;;;1.70;;
31282;SDS011;17915;52.540;13.604;2023-10-08T14:42:51;5.05;;;1.50;;
31282;SDS011;17915;52.540;13.604;2023-10-08T14:45:27;2.05;;;1.10;;
31282;SDS011;17915;52.540;13.604;2023-10-08T14:47:56;1.10;;;1.10;;
31282;SDS011;17915;52.540;13.604;2023-10-08T14:50:23;1.83;;;1.70;;
31282;SDS011;17915;52.540;13.604;2023-10-08T14:52:52;3.85;;;1.63;;
31282;SDS011;17915;52.540;13.604;2023-10-08T14:55:18;1.23;;;1.20;;
31282;SDS011;17915;52.540;13.604;2023-10-08T14:57:46;1.42;;;1.38;;
31282;SDS011;17915;52.540;13.604;2023-10-08T15:00:12;2.13;;;1.80;;
31282;SDS011;17915;52.540;13.604;2023-10-08T15:02:37;2.87;;;1.70;;
31282;SDS011;17915;52.540;13.604;2023-10-08T15:05:04;7.53;;;2.25;;
31282;SDS011;17915;52.540;13.604;2023-10-08T15:07:30;1.63;;;1.50;;
31282;SDS011;17915;52.540;13.604;2023-10-08T15:09:57;1.70;;;1.60;;
31282;SDS011;17915;52.540;13.604;2023-10-08T15:12:25;2.55;;;2.15;;
31282;SDS011;17915;52.540;13.604;2023-10-08T15:14:51;2.70;;;1.60;;
31282;SDS011;17915;52.540;13.604;2023-10-08T15:17:17;1.90;;;1.73;;